createdAt,value
2023-05-02T00:02:12.100Z,8.23
2023-05-02T00:04:39.423Z,8.31
2023-05-02T00:07:06.844Z,8.35
2023-05-02T00:09:34.476Z,8.27
2023-05-02T00:12:02.750Z,8.21
2023-05-02T00:14:30.196Z,8.05
2023-05-02T00:16:57.353Z,8.07
2023-05-02T00:19:24.657Z,8.04
2023-05-02T00:21:51.743Z,7.98
2023-05-02T00:24:18.995Z,7.81
2023-05-02T00:26:46.282Z,7.83
2023-05-02T00:29:13.116Z,7.85
2023-05-02T00:31:43.581Z,7.75
2023-05-02T00:34:10.855Z,7.79
2023-05-02T00:36:37.851Z,7.71
2023-05-02T00:39:05.647Z,7.66
2023-05-02T00:41:32.484Z,7.62
2023-05-02T00:43:59.715Z,7.49
2023-05-02T00:46:26.923Z,7.59
2023-05-02T00:48:53.957Z,7.58
2023-05-02T00:51:21.070Z,7.52
2023-05-02T00:53:48.546Z,7.45
2023-05-02T00:56:15.481Z,7.40
2023-05-02T00:58:43.390Z,7.22
2023-05-02T01:01:25.656Z,7.32
2023-05-02T01:04:19.404Z,7.27
2023-05-02T01:07:24.895Z,7.16
2023-05-02T01:10:19.727Z,7.09
2023-05-02T01:12:54.974Z,7.06
2023-05-02T01:15:23.688Z,6.98
2023-05-02T01:17:52.645Z,7.01
2023-05-02T01:20:23.692Z,7.01
2023-05-02T01:22:51.599Z,6.93
2023-05-02T01:25:54.755Z,6.95
2023-05-02T01:28:33.752Z,6.94
2023-05-02T01:31:03.472Z,6.92
2023-05-02T01:33:32.062Z,6.89
2023-05-02T01:36:02.178Z,6.92
2023-05-02T01:38:31.241Z,6.94
2023-05-02T01:41:03.872Z,6.89
2023-05-02T01:43:33.170Z,6.92
2023-05-02T01:46:02.636Z,6.86
2023-05-02T01:48:30.225Z,6.84
2023-05-02T01:50:58.797Z,6.87
2023-05-02T01:53:28.842Z,6.87
2023-05-02T01:55:57.627Z,6.86
2023-05-02T01:58:27.338Z,6.82
2023-05-02T02:00:55.680Z,6.79
2023-05-02T02:03:23.167Z,6.75
2023-05-02T02:05:55.638Z,6.61
2023-05-02T02:08:22.927Z,6.55
2023-05-02T02:10:54.357Z,6.49
2023-05-02T02:13:31.498Z,6.49
2023-05-02T02:16:02.229Z,6.51
2023-05-02T02:18:32.864Z,6.55
2023-05-02T02:21:01.110Z,6.51
2023-05-02T02:23:30.274Z,6.49
2023-05-02T02:25:58.288Z,6.35
2023-05-02T02:28:25.188Z,6.35
2023-05-02T02:30:52.141Z,6.31
2023-05-02T02:33:20.645Z,6.25
2023-05-02T02:35:53.785Z,6.18
2023-05-02T02:38:32.735Z,6.24
2023-05-02T02:41:09.802Z,6.17
2023-05-02T02:43:57.821Z,6.15
2023-05-02T02:47:03.269Z,5.87
2023-05-02T02:49:47.465Z,6.03
2023-05-02T02:52:28.063Z,6.05
2023-05-02T02:55:09.946Z,6.03
2023-05-02T02:57:37.014Z,6.02
2023-05-02T03:00:18.900Z,5.97
2023-05-02T03:02:48.193Z,5.95
2023-05-02T03:05:16.019Z,5.86
2023-05-02T03:07:43.506Z,5.85
2023-05-02T03:10:11.980Z,5.78
2023-05-02T03:12:40.171Z,5.83
2023-05-02T03:15:44.073Z,5.86
2023-05-02T03:18:12.316Z,5.81
2023-05-02T03:20:40.115Z,5.82
2023-05-02T03:23:06.941Z,5.80
2023-05-02T03:25:37.269Z,5.84
2023-05-02T03:28:04.212Z,5.86
2023-05-02T03:30:31.329Z,5.84
2023-05-02T03:33:00.557Z,5.91
2023-05-02T03:35:27.580Z,6.00
2023-05-02T03:37:54.675Z,5.99
2023-05-02T03:40:22.060Z,5.97
2023-05-02T03:42:49.070Z,6.04
2023-05-02T03:45:25.328Z,5.99
2023-05-02T03:47:53.156Z,6.00
2023-05-02T03:50:20.692Z,6.11
2023-05-02T03:52:50.603Z,6.23
2023-05-02T03:55:22.089Z,6.21
2023-05-02T03:57:49.376Z,6.37
2023-05-02T04:00:17.015Z,6.47
2023-05-02T04:02:51.728Z,6.60
2023-05-02T04:05:21.770Z,6.59
2023-05-02T04:07:50.299Z,6.74
2023-05-02T04:10:18.252Z,6.76
2023-05-02T04:12:53.358Z,6.96
2023-05-02T04:15:20.945Z,7.02
2023-05-02T04:17:51.607Z,7.11
2023-05-02T04:20:20.097Z,7.24
2023-05-02T04:22:50.819Z,7.36
2023-05-02T04:25:17.897Z,7.45
2023-05-02T04:27:46.188Z,7.61
2023-05-02T04:30:16.411Z,7.75
2023-05-02T04:32:48.771Z,7.72
2023-05-02T04:35:15.919Z,7.90
2023-05-02T04:37:43.065Z,8.03
2023-05-02T04:40:11.530Z,8.14
2023-05-02T04:42:39.532Z,8.24
2023-05-02T04:45:14.214Z,8.44
2023-05-02T04:47:43.426Z,8.60
2023-05-02T04:50:10.701Z,8.75
2023-05-02T04:52:37.888Z,8.84
2023-05-02T04:55:05.241Z,9.02
2023-05-02T04:57:32.497Z,9.15
2023-05-02T05:00:01.437Z,9.34
2023-05-02T05:02:29.830Z,9.49
2023-05-02T05:04:57.831Z,9.63
2023-05-02T05:07:25.751Z,9.75
2023-05-02T05:09:53.932Z,9.98
2023-05-02T05:12:23.441Z,10.08
2023-05-02T05:14:50.743Z,10.18
2023-05-02T05:17:19.704Z,10.25
2023-05-02T05:19:47.445Z,10.36
2023-05-02T05:22:14.335Z,10.63
2023-05-02T05:24:41.656Z,10.69
2023-05-02T05:27:08.627Z,10.90
2023-05-02T05:29:36.043Z,11.03
2023-05-02T05:32:03.391Z,11.23
2023-05-02T05:34:31.087Z,11.42
2023-05-02T05:37:00.639Z,11.57
2023-05-02T05:39:28.046Z,11.64
2023-05-02T05:41:57.605Z,11.82
2023-05-02T05:44:25.888Z,12.15
2023-05-02T05:46:53.144Z,12.19
2023-05-02T05:49:22.418Z,12.28
2023-05-02T05:51:49.998Z,12.46
2023-05-02T05:54:18.777Z,12.67
2023-05-02T05:56:46.330Z,12.79
2023-05-02T05:59:16.951Z,12.99
2023-05-02T06:01:44.009Z,13.27
2023-05-02T06:04:12.362Z,13.44
2023-05-02T06:06:42.522Z,13.58
2023-05-02T06:09:09.530Z,13.71
2023-05-02T06:11:38.431Z,13.91
2023-05-02T06:14:06.687Z,14.04
2023-05-02T06:16:34.258Z,14.18
2023-05-02T06:19:01.352Z,14.32
2023-05-02T06:21:28.494Z,14.55
2023-05-02T06:23:55.808Z,14.74
2023-05-02T06:26:22.748Z,14.91
2023-05-02T06:28:49.513Z,15.15
2023-05-02T06:31:17.207Z,15.32
2023-05-02T06:33:44.099Z,15.52
2023-05-02T06:36:11.265Z,15.78
2023-05-02T06:38:38.073Z,15.92
2023-05-02T06:41:05.262Z,16.10
2023-05-02T06:43:32.934Z,16.25
2023-05-02T06:46:01.139Z,16.39
2023-05-02T06:48:28.087Z,16.52
2023-05-02T06:50:55.165Z,16.73
2023-05-02T06:53:22.147Z,16.84
2023-05-02T06:55:49.401Z,17.01
2023-05-02T06:58:16.380Z,17.14
2023-05-02T07:00:43.615Z,17.30
2023-05-02T07:03:11.602Z,17.40
2023-05-02T07:05:38.885Z,17.48
2023-05-02T07:08:06.331Z,17.58
2023-05-02T07:10:33.347Z,17.71
2023-05-02T07:13:00.147Z,17.92
2023-05-02T07:15:27.780Z,17.99
2023-05-02T07:17:55.071Z,18.13
2023-05-02T07:20:22.176Z,18.17
2023-05-02T07:22:49.732Z,18.23
2023-05-02T07:25:16.662Z,18.37
2023-05-02T07:27:43.893Z,18.51
2023-05-02T07:30:11.619Z,18.72
2023-05-02T07:32:38.619Z,18.84
2023-05-02T07:35:05.900Z,18.98
2023-05-02T07:37:34.958Z,19.12
2023-05-02T07:40:02.599Z,19.34
2023-05-02T07:42:31.376Z,19.45
2023-05-02T07:44:58.928Z,19.49
2023-05-02T07:47:26.762Z,19.58
2023-05-02T07:49:55.473Z,19.67
2023-05-02T07:52:22.679Z,19.48
2023-05-02T07:54:49.959Z,19.52
2023-05-02T07:57:17.245Z,19.72
2023-05-02T07:59:44.370Z,19.79
2023-05-02T08:02:13.747Z,19.85
2023-05-02T08:04:41.474Z,19.95
2023-05-02T08:07:08.755Z,19.79
2023-05-02T08:09:35.684Z,19.77
2023-05-02T08:12:03.354Z,19.90
2023-05-02T08:14:30.563Z,19.78
2023-05-02T08:16:57.932Z,20.09
2023-05-02T08:19:25.197Z,19.97
2023-05-02T08:21:54.023Z,19.94
2023-05-02T08:24:21.519Z,20.01
2023-05-02T08:26:48.464Z,20.05
2023-05-02T08:29:15.409Z,20.14
2023-05-02T08:31:42.761Z,20.34
2023-05-02T08:34:09.640Z,20.45
2023-05-02T08:36:37.468Z,20.58
2023-05-02T08:39:04.401Z,20.65
2023-05-02T08:41:31.719Z,20.74
2023-05-02T08:44:00.000Z,20.53
2023-05-02T08:46:28.098Z,20.55
2023-05-02T08:48:59.045Z,20.49
2023-05-02T08:51:29.429Z,20.50
2023-05-02T08:53:58.551Z,20.67
2023-05-02T08:56:26.439Z,20.83
2023-05-02T08:58:53.345Z,20.80
2023-05-02T09:01:24.347Z,20.76
2023-05-02T09:03:52.493Z,20.93
2023-05-02T09:06:22.077Z,20.95
2023-05-02T09:08:54.511Z,20.82
2023-05-02T09:11:22.312Z,20.90
2023-05-02T09:13:53.982Z,20.84
2023-05-02T09:16:27.257Z,20.76
2023-05-02T09:18:56.694Z,20.95
2023-05-02T09:21:37.202Z,20.79
2023-05-02T09:24:17.152Z,20.74
2023-05-02T09:26:56.758Z,20.76
2023-05-02T09:29:24.039Z,20.81
2023-05-02T09:31:56.027Z,20.95
2023-05-02T09:34:23.699Z,20.95
2023-05-02T09:36:54.627Z,21.16
2023-05-02T09:39:26.577Z,21.00
2023-05-02T09:41:54.207Z,21.04
2023-05-02T09:44:24.811Z,21.18
2023-05-02T09:46:56.376Z,21.12
2023-05-02T09:49:52.752Z,21.14
2023-05-02T09:52:24.202Z,21.36
2023-05-02T09:54:52.336Z,21.42
2023-05-02T09:57:19.889Z,21.55
2023-05-02T09:59:57.127Z,21.51
2023-05-02T10:02:26.058Z,21.36
2023-05-02T10:04:56.972Z,21.37
2023-05-02T10:07:25.026Z,21.41
2023-05-02T10:09:58.313Z,21.39
2023-05-02T10:12:28.460Z,21.47
2023-05-02T10:15:05.871Z,21.70
2023-05-02T10:17:39.456Z,21.79
2023-05-02T10:20:08.078Z,21.63
2023-05-02T10:22:36.992Z,21.79
2023-05-02T10:25:04.815Z,21.81
2023-05-02T10:27:33.071Z,21.93
2023-05-02T10:30:01.129Z,21.97
2023-05-02T10:32:29.770Z,21.87
2023-05-02T10:35:04.687Z,22.01
2023-05-02T10:37:36.640Z,21.68
2023-05-02T10:40:04.405Z,21.67
2023-05-02T10:42:35.219Z,21.74
2023-05-02T10:45:02.569Z,21.94
2023-05-02T10:47:30.434Z,22.07
2023-05-02T10:50:00.515Z,22.14
2023-05-02T10:52:35.662Z,22.16
2023-05-02T10:55:20.470Z,22.15
2023-05-02T10:58:02.400Z,22.21
2023-05-02T11:00:32.505Z,22.17
2023-05-02T11:03:00.425Z,22.09
2023-05-02T11:05:28.663Z,22.14
2023-05-02T11:08:27.604Z,21.92
2023-05-02T11:10:54.644Z,21.81
2023-05-02T11:13:49.391Z,21.83
2023-05-02T11:16:16.566Z,21.96
2023-05-02T11:19:12.585Z,21.97
2023-05-02T11:21:40.398Z,22.07
2023-05-02T11:24:47.752Z,22.32
2023-05-02T11:27:33.712Z,22.40
2023-05-02T11:30:02.094Z,22.39
2023-05-02T11:32:48.576Z,22.41
2023-05-02T11:35:23.759Z,22.45
2023-05-02T11:37:58.058Z,22.39
2023-05-02T11:40:27.159Z,22.20
2023-05-02T11:42:54.890Z,22.16
2023-05-02T11:45:23.957Z,22.19
2023-05-02T11:47:51.738Z,22.38
2023-05-02T11:50:18.868Z,22.53
2023-05-02T11:52:46.390Z,22.34
2023-05-02T11:55:15.200Z,22.35
2023-05-02T11:57:43.152Z,22.34
2023-05-02T12:00:13.422Z,22.46
2023-05-02T12:02:42.037Z,22.54
2023-05-02T12:05:13.618Z,22.45
2023-05-02T12:07:49.454Z,22.56
2023-05-02T12:10:16.398Z,22.46
2023-05-02T12:12:44.693Z,22.47
2023-05-02T12:15:12.873Z,22.39
2023-05-02T12:17:48.997Z,22.29
2023-05-02T12:20:17.163Z,22.33
2023-05-02T12:22:44.536Z,22.34
2023-05-02T12:25:11.505Z,22.32
2023-05-02T12:27:38.694Z,22.57
2023-05-02T12:30:06.167Z,22.56
2023-05-02T12:32:35.289Z,22.56
2023-05-02T12:35:04.111Z,22.69
2023-05-02T12:37:31.211Z,22.57
2023-05-02T12:39:58.368Z,22.37
2023-05-02T12:42:26.111Z,22.54
2023-05-02T12:44:53.364Z,22.36
2023-05-02T12:47:22.963Z,22.45
2023-05-02T12:49:54.034Z,22.75
2023-05-02T12:52:22.776Z,22.69
2023-05-02T12:54:49.672Z,22.62
2023-05-02T12:57:26.626Z,22.78
2023-05-02T12:59:56.857Z,22.79
2023-05-02T13:02:24.046Z,22.79
2023-05-02T13:04:51.484Z,22.78
2023-05-02T13:07:18.444Z,22.77
2023-05-02T13:09:45.383Z,22.72
2023-05-02T13:12:12.735Z,22.66
2023-05-02T13:17:22.003Z,22.52
2023-05-02T13:20:00.343Z,22.71
2023-05-02T13:22:31.732Z,22.69
2023-05-02T13:24:58.939Z,22.70
2023-05-02T13:27:26.137Z,22.78
2023-05-02T13:29:53.107Z,22.73
2023-05-02T13:32:20.036Z,22.79
2023-05-02T13:34:47.073Z,22.82
2023-05-02T13:37:14.194Z,22.90
2023-05-02T13:39:41.243Z,22.93
2023-05-02T13:42:08.136Z,22.84
2023-05-02T13:44:35.130Z,22.80
2023-05-02T13:47:02.167Z,22.89
2023-05-02T13:49:29.187Z,22.85
2023-05-02T13:51:56.334Z,22.90
2023-05-02T13:54:23.336Z,23.03
2023-05-02T13:56:50.222Z,22.92
2023-05-02T13:59:17.115Z,22.82
2023-05-02T14:01:44.149Z,22.87
2023-05-02T14:04:11.476Z,22.72
2023-05-02T14:06:38.919Z,22.75
2023-05-02T14:09:07.445Z,22.67
2023-05-02T14:11:34.288Z,22.72
2023-05-02T14:14:01.155Z,22.76
2023-05-02T14:16:28.315Z,22.80
2023-05-02T14:18:55.277Z,22.53
2023-05-02T14:21:22.105Z,22.65
2023-05-02T14:23:49.034Z,22.67
2023-05-02T14:26:16.168Z,22.76
2023-05-02T14:28:45.688Z,22.77
2023-05-02T14:31:12.849Z,22.88
2023-05-02T14:33:40.053Z,22.81
2023-05-02T14:36:07.436Z,22.61
2023-05-02T14:38:34.317Z,22.53
2023-05-02T14:41:03.050Z,22.42
2023-05-02T14:43:29.901Z,22.62
2023-05-02T14:45:57.788Z,22.67
2023-05-02T14:48:24.992Z,22.63
2023-05-02T14:50:51.901Z,22.59
2023-05-02T14:53:20.081Z,22.44
2023-05-02T14:55:47.123Z,22.34
2023-05-02T14:58:20.414Z,22.39
2023-05-02T15:00:47.592Z,22.28
2023-05-02T15:03:14.927Z,22.29
2023-05-02T15:05:41.960Z,22.26
2023-05-02T15:08:09.099Z,22.26
2023-05-02T15:10:39.886Z,22.30
2023-05-02T15:13:26.539Z,22.26
2023-05-02T15:15:57.068Z,22.34
2023-05-02T15:18:24.065Z,22.11
2023-05-02T15:20:50.990Z,22.18
2023-05-02T15:23:18.285Z,22.12
2023-05-02T15:25:45.335Z,21.99
2023-05-02T15:28:12.265Z,21.95
2023-05-02T15:30:39.682Z,21.81
2023-05-02T15:33:06.756Z,21.66
2023-05-02T15:35:33.758Z,21.54
2023-05-02T15:38:00.716Z,21.58
2023-05-02T15:40:28.767Z,21.39
2023-05-02T15:42:55.695Z,21.46
2023-05-02T15:45:22.836Z,21.41
2023-05-02T15:47:51.079Z,21.38
2023-05-02T15:50:18.058Z,21.44
2023-05-02T15:52:44.845Z,21.51
2023-05-02T15:55:12.078Z,21.83
2023-05-02T15:57:38.863Z,21.91
2023-05-02T16:00:06.786Z,21.98
2023-05-02T16:02:34.245Z,21.71
2023-05-02T16:05:02.011Z,21.80
2023-05-02T16:07:28.805Z,21.65
2023-05-02T16:09:56.249Z,21.67
2023-05-02T16:12:23.204Z,21.54
2023-05-02T16:14:50.707Z,21.43
2023-05-02T16:17:17.737Z,21.02
2023-05-02T16:19:44.577Z,20.80
2023-05-02T16:22:11.606Z,20.51
2023-05-02T16:24:38.758Z,20.25
2023-05-02T16:27:05.586Z,20.29
2023-05-02T16:29:32.743Z,20.11
2023-05-02T16:31:59.892Z,20.04
2023-05-02T16:34:27.196Z,19.95
2023-05-02T16:36:54.050Z,19.83
2023-05-02T16:39:21.083Z,19.78
2023-05-02T16:41:49.481Z,19.64
2023-05-02T16:44:20.564Z,19.60
2023-05-02T16:46:47.765Z,19.54
2023-05-02T16:49:14.809Z,19.41
2023-05-02T16:51:41.916Z,19.41
2023-05-02T16:54:09.046Z,19.32
2023-05-02T16:56:35.823Z,19.22
2023-05-02T16:59:02.938Z,18.99
2023-05-02T17:01:35.112Z,19.10
2023-05-02T17:04:02.148Z,18.92
2023-05-02T17:06:29.246Z,18.81
2023-05-02T17:08:56.498Z,18.77
2023-05-02T17:11:25.507Z,18.65
2023-05-02T17:13:52.722Z,18.54
2023-05-02T17:16:23.024Z,18.41
2023-05-02T17:18:53.112Z,18.27
2023-05-02T17:21:21.140Z,18.14
2023-05-02T17:23:48.452Z,18.14
2023-05-02T17:26:16.705Z,18.04
2023-05-02T17:28:44.312Z,17.95
2023-05-02T17:31:12.268Z,17.88
2023-05-02T17:33:39.297Z,17.80
2023-05-02T17:36:06.921Z,17.74
2023-05-02T17:38:33.932Z,17.68
2023-05-02T17:41:01.070Z,17.48
2023-05-02T17:43:28.185Z,17.47
2023-05-02T17:45:55.048Z,17.45
2023-05-02T17:48:29.584Z,17.39
2023-05-02T17:50:56.575Z,17.26
2023-05-02T17:53:23.807Z,17.23
2023-05-02T17:55:51.280Z,17.15
2023-05-02T17:58:18.892Z,17.04
2023-05-02T18:00:45.741Z,17.00
2023-05-02T18:03:13.454Z,16.88
2023-05-02T18:05:41.061Z,16.87
2023-05-02T18:08:08.369Z,16.83
2023-05-02T18:10:39.244Z,16.72
2023-05-02T18:13:06.510Z,16.62
2023-05-02T18:15:33.288Z,16.50
2023-05-02T18:18:00.317Z,16.47
2023-05-02T18:20:27.477Z,16.36
2023-05-02T18:22:57.577Z,16.24
2023-05-02T18:25:25.143Z,16.27
2023-05-02T18:28:16.325Z,16.24
2023-05-02T18:30:43.157Z,16.14
2023-05-02T18:33:10.132Z,16.05
2023-05-02T18:35:36.983Z,16.02
2023-05-02T18:38:07.183Z,15.95
2023-05-02T18:40:34.115Z,15.95
2023-05-02T18:43:01.221Z,15.78
2023-05-02T18:45:28.583Z,15.79
2023-05-02T18:47:55.622Z,15.71
2023-05-02T18:50:22.617Z,15.59
2023-05-02T18:52:49.712Z,15.62
2023-05-02T18:55:16.830Z,15.63
2023-05-02T18:57:44.584Z,15.64
2023-05-02T19:00:12.556Z,15.55
2023-05-02T19:02:40.353Z,15.44
2023-05-02T19:05:08.268Z,15.42
2023-05-02T19:07:38.188Z,15.27
2023-05-02T19:10:05.844Z,15.24
2023-05-02T19:12:33.211Z,15.06
2023-05-02T19:15:00.841Z,15.03
2023-05-02T19:17:27.973Z,15.00
2023-05-02T19:19:56.208Z,14.95
2023-05-02T19:22:24.566Z,14.90
2023-05-02T19:24:51.543Z,14.94
2023-05-02T19:27:18.543Z,14.93
2023-05-02T19:30:18.326Z,14.81
2023-05-02T19:33:00.282Z,14.78
2023-05-02T19:35:30.837Z,14.61
2023-05-02T19:37:58.212Z,14.62
2023-05-02T19:40:25.254Z,14.60
2023-05-02T19:42:55.451Z,14.54
2023-05-02T19:45:22.421Z,14.45
2023-05-02T19:47:49.285Z,14.36
2023-05-02T19:50:41.348Z,14.27
2023-05-02T19:53:08.672Z,14.12
2023-05-02T19:55:35.425Z,14.08
2023-05-02T19:58:04.497Z,14.07
2023-05-02T20:00:31.376Z,13.96
2023-05-02T20:02:58.578Z,13.93
2023-05-02T20:05:25.647Z,13.78
2023-05-02T20:07:52.431Z,13.72
2023-05-02T20:10:19.341Z,13.57
2023-05-02T20:12:47.061Z,13.58
2023-05-02T20:15:16.309Z,13.51
2023-05-02T20:17:43.334Z,13.45
2023-05-02T20:20:11.715Z,13.45
2023-05-02T20:22:41.999Z,13.37
2023-05-02T20:25:11.936Z,13.38
2023-05-02T20:27:39.132Z,13.34
2023-05-02T20:30:07.779Z,13.38
2023-05-02T20:32:34.791Z,13.45
2023-05-02T20:35:01.925Z,13.54
2023-05-02T20:37:29.672Z,13.66
2023-05-02T20:39:56.716Z,13.63
2023-05-02T20:42:26.970Z,13.59
2023-05-02T20:44:58.473Z,13.65
2023-05-02T20:47:29.595Z,13.53
2023-05-02T20:49:57.180Z,13.44
2023-05-02T20:52:24.132Z,13.31
2023-05-02T20:54:54.782Z,13.08
2023-05-02T20:57:22.354Z,13.22
2023-05-02T20:59:49.193Z,13.22
2023-05-02T21:02:16.200Z,13.17
2023-05-02T21:04:43.613Z,12.98
2023-05-02T21:07:11.452Z,13.01
2023-05-02T21:09:38.359Z,13.06
2023-05-02T21:12:06.358Z,12.95
2023-05-02T21:14:34.737Z,12.86
2023-05-02T21:17:01.665Z,12.74
2023-05-02T21:19:28.764Z,12.72
2023-05-02T21:21:55.831Z,12.66
2023-05-02T21:24:22.851Z,12.65
2023-05-02T21:26:49.919Z,12.60
2023-05-02T21:29:16.924Z,12.53
2023-05-02T21:31:45.449Z,12.54
2023-05-02T21:34:12.557Z,12.56
2023-05-02T21:36:39.383Z,12.45
2023-05-02T21:39:06.472Z,12.38
2023-05-02T21:41:33.403Z,12.37
2023-05-02T21:44:00.335Z,12.36
2023-05-02T21:46:27.625Z,12.36
2023-05-02T21:48:54.486Z,12.29
2023-05-02T21:51:21.652Z,12.25
2023-05-02T21:53:51.651Z,12.09
2023-05-02T21:56:19.322Z,12.12
2023-05-02T21:58:47.868Z,12.11
2023-05-02T22:01:15.944Z,12.05
2023-05-02T22:03:43.141Z,11.99
2023-05-02T22:06:10.254Z,11.84
2023-05-02T22:08:37.183Z,11.84
2023-05-02T22:11:09.669Z,11.73
2023-05-02T22:13:37.251Z,11.77
2023-05-02T22:16:04.445Z,11.72
2023-05-02T22:18:31.472Z,11.71
2023-05-02T22:20:58.663Z,11.59
2023-05-02T22:23:25.783Z,11.53
2023-05-02T22:25:52.947Z,11.44
2023-05-02T22:28:20.007Z,11.46
2023-05-02T22:30:46.945Z,11.42
2023-05-02T22:33:14.253Z,11.32
2023-05-02T22:35:41.544Z,11.26
2023-05-02T22:38:11.393Z,11.11
2023-05-02T22:40:38.301Z,11.02
2023-05-02T22:43:05.105Z,10.99
2023-05-02T22:45:31.943Z,11.03
2023-05-02T22:47:58.835Z,10.94
2023-05-02T22:50:26.429Z,10.87
2023-05-02T22:52:57.358Z,10.82
2023-05-02T22:55:24.367Z,10.69
2023-05-02T22:57:51.600Z,10.63
2023-05-02T23:00:18.574Z,10.58
2023-05-02T23:02:46.030Z,10.63
2023-05-02T23:05:12.871Z,10.63
2023-05-02T23:07:40.386Z,10.58
2023-05-02T23:10:08.144Z,10.46
2023-05-02T23:12:34.921Z,10.39
2023-05-02T23:15:01.813Z,10.28
2023-05-02T23:17:28.723Z,10.41
2023-05-02T23:20:01.501Z,10.29
2023-05-02T23:22:29.913Z,10.31
2023-05-02T23:24:56.951Z,10.20
2023-05-02T23:27:23.871Z,10.18
2023-05-02T23:29:50.729Z,9.96
2023-05-02T23:32:18.991Z,9.90
2023-05-02T23:34:46.223Z,9.71
2023-05-02T23:37:14.362Z,9.46
2023-05-02T23:39:41.411Z,9.36
2023-05-02T23:42:08.288Z,9.29
2023-05-02T23:44:35.462Z,9.19
2023-05-02T23:47:02.429Z,9.11
2023-05-02T23:49:29.254Z,9.07
2023-05-02T23:51:56.348Z,9.00
2023-05-02T23:54:23.229Z,8.94
2023-05-02T23:56:50.472Z,9.03
2023-05-02T23:59:17.376Z,9.05
